Time;durP1;ratioP1;P1;durP2;ratioP2;P2;SDS_P1;SDS_P2;PMS_P1;PMS_P2;Temp;Humidity;BMP_temperature;BMP_pressure;BME280_temperature;BME280_humidity;BME280_pressure;Samples;Min_cycle;Max_cycle;Signal;HPM_P1;HPM_P2
2023/07/25 00:00:30;;;;;;;;;18.00;12.50;;;;;25.10;78.33;98651.50;6279090;20;2801531;-47
2023/07/25 00:02:59;;;;;;;;;18.00;15.00;;;;;25.13;77.53;98644.72;6281463;20;2790913;-50
2023/07/25 00:05:27;;;;;;;;;15.33;14.00;;;;;25.25;76.43;98658.69;6281768;20;3532590;-48
2023/07/25 00:07:55;;;;;;;;;17.00;13.67;;;;;25.20;76.17;98667.59;6309645;20;3528400;-48
2023/07/25 00:10:23;;;;;;;;;14.50;13.00;;;;;25.16;76.36;98639.66;6281403;20;2791946;-45
2023/07/25 00:12:53;;;;;;;;;9.67;9.33;;;;;25.15;75.53;98665.47;6280146;20;3462802;-45
2023/07/25 00:15:21;;;;;;;;;9.33;8.67;;;;;25.21;74.72;98647.28;6318004;20;2762874;-44
2023/07/25 00:17:50;;;;;;;;;21.50;14.50;;;;;25.10;74.98;98672.63;6310145;20;2832705;-49
2023/07/25 00:20:18;;;;;;;;;18.00;13.50;;;;;25.05;76.19;98640.31;6280910;20;2801333;-50
2023/07/25 00:22:46;;;;;;;;;15.33;12.67;;;;;25.07;75.17;98643.69;6281558;20;3525341;-46
2023/07/25 00:25:15;;;;;;;;;18.67;15.00;;;;;25.06;74.55;98631.00;6314141;20;3552344;-46
2023/07/25 00:27:44;;;;;;;;;14.00;11.00;;;;;25.18;72.82;98579.03;6277523;20;2788800;-47
2023/07/25 00:30:12;;;;;;;;;13.00;12.00;;;;;25.13;72.50;98521.94;6310690;20;3515585;-48
2023/07/25 00:32:40;;;;;;;;;12.00;12.00;;;;;25.01;73.65;98471.50;6277661;20;3513824;-49
2023/07/25 00:35:08;;;;;;;;;13.67;13.00;;;;;25.09;73.59;98465.78;6281401;20;2784826;-47
2023/07/25 00:37:36;;;;;;;;;11.33;11.33;;;;;25.10;72.72;98447.38;6311311;20;2483690;-46
2023/07/25 00:40:05;;;;;;;;;12.67;12.00;;;;;25.10;72.66;98441.91;6310162;20;3509784;-46
2023/07/25 00:42:33;;;;;;;;;11.00;10.00;;;;;25.15;71.94;98478.66;6284000;20;2786909;-48
2023/07/25 00:45:01;;;;;;;;;13.67;12.33;;;;;25.17;71.01;98530.63;6309803;20;3514840;-48
2023/07/25 00:47:29;;;;;;;;;15.00;11.00;;;;;25.14;71.24;98564.00;6312255;20;2491952;-51
2023/07/25 00:49:58;;;;;;;;;13.33;12.33;;;;;25.06;71.91;98565.06;6305966;20;3503498;-48
2023/07/25 00:52:26;;;;;;;;;14.00;11.33;;;;;24.98;72.54;98560.66;6311143;20;2786946;-50
2023/07/25 00:54:54;;;;;;;;;12.00;9.00;;;;;25.13;71.33;98589.78;6314993;20;2483579;-46
2023/07/25 00:57:22;;;;;;;;;12.67;12.67;;;;;25.17;69.65;98602.91;6309919;20;3502349;-47
2023/07/25 00:59:50;;;;;;;;;11.00;9.67;;;;;25.12;70.09;98591.69;6312038;20;3506536;-47
2023/07/25 01:02:18;;;;;;;;;11.00;8.33;;;;;25.12;70.05;98605.44;6314456;20;2769049;-52
2023/07/25 01:04:46;;;;;;;;;10.67;9.00;;;;;25.17;70.48;98618.53;6308212;20;3488826;-47
2023/07/25 01:07:16;;;;;;;;;16.67;11.33;;;;;25.21;69.34;98630.78;6307022;20;3531628;-51
2023/07/25 01:09:45;;;;;;;;;9.00;9.00;;;;;25.34;66.91;98624.44;6275865;20;2739966;-49
2023/07/25 01:12:14;;;;;;;;;14.33;11.00;;;;;25.42;65.23;98626.09;6308179;20;3519241;-50
2023/07/25 01:14:42;;;;;;;;;10.67;9.00;;;;;25.41;65.84;98639.00;6306600;20;3490881;-46
2023/07/25 01:17:21;;;;;;;;;9.33;9.33;;;;;25.52;64.52;98643.81;6309855;20;3480524;-51
2023/07/25 01:19:51;;;;;;;;;10.67;9.00;;;;;25.48;65.33;98670.03;6310706;20;3494092;-45
2023/07/25 01:22:22;;;;;;;;;16.33;10.33;;;;;25.44;66.30;98701.78;6313714;20;3533616;-48
2023/07/25 01:24:55;;;;;;;;;9.00;9.00;;;;;25.22;69.23;98714.06;6288742;20;2737797;-49
2023/07/25 01:27:23;;;;;;;;;10.67;9.67;;;;;24.94;72.77;98728.84;6311090;20;3507663;-48
2023/07/25 01:29:51;;;;;;;;;14.00;11.67;;;;;24.59;77.31;98739.13;6317652;20;2788895;-49
2023/07/25 01:32:19;;;;;;;;;13.67;10.33;;;;;23.95;81.65;98734.88;6315584;20;3508687;-47
2023/07/25 01:34:47;;;;;;;;;14.67;13.00;;;;;23.64;87.53;98725.19;6284878;20;2787924;-46
2023/07/25 01:37:15;;;;;;;;;11.00;10.00;;;;;23.30;88.85;98699.53;6313200;20;3508631;-46
2023/07/25 01:39:43;;;;;;;;;9.33;7.00;;;;;22.97;92.08;98688.31;6320920;20;2753538;-45
2023/07/25 01:42:11;;;;;;;;;10.00;7.67;;;;;22.65;94.39;98684.22;6313392;20;3477435;-49
2023/07/25 01:44:39;;;;;;;;;10.67;7.00;;;;;22.45;97.22;98682.13;6314554;20;2759684;-50
2023/07/25 01:47:07;;;;;;;;;6.67;6.67;;;;;22.41;93.62;98667.19;6314528;20;2746095;-50
2023/07/25 01:49:37;;;;;;;;;8.60;6.40;;;;;22.13;95.08;98676.09;6339901;20;2740993;-47
2023/07/25 01:52:07;;;;;;;;;5.80;5.00;;;;;22.09;96.46;98691.22;6335292;20;2739943;-45
2023/07/25 01:54:34;;;;;;;;;6.00;5.00;;;;;21.95;98.21;98683.03;6312087;20;2740008;-49
2023/07/25 01:57:04;;;;;;;;;5.60;4.60;;;;;22.10;96.53;98681.97;6336461;20;2748244;-47
2023/07/25 01:59:33;;;;;;;;;7.20;5.80;;;;;21.82;97.90;98681.00;6303388;20;2747131;-48
2023/07/25 02:02:01;;;;;;;;;7.67;5.67;;;;;21.93;98.79;98653.16;6282590;20;2734666;-47
2023/07/25 02:04:29;;;;;;;;;7.67;6.00;;;;;21.78;99.18;98652.38;6314729;20;2739878;-47
2023/07/25 02:06:58;;;;;;;;;4.80;4.80;;;;;22.01;97.15;98633.94;6340327;20;2748679;-45
2023/07/25 02:09:26;;;;;;;;;5.67;5.67;;;;;21.82;98.53;98618.97;6323953;20;2730498;-45
2023/07/25 02:11:55;;;;;;;;;8.20;4.80;;;;;21.76;98.67;98594.31;6339634;20;2742374;-46
2023/07/25 02:14:23;;;;;;;;;10.67;6.67;;;;;21.77;100.00;98560.47;6313336;20;2768014;-44
2023/07/25 02:16:53;;;;;;;;;7.40;6.20;;;;;21.58;100.00;98496.41;6338789;20;2746116;-45
2023/07/25 02:19:21;;;;;;;;;8.33;5.67;;;;;21.74;100.00;98430.56;6282414;20;2739910;-44
2023/07/25 02:21:49;;;;;;;;;7.00;6.67;;;;;21.75;100.00;98434.13;6312711;20;2739921;-45
2023/07/25 02:24:18;;;;;;;;;8.20;7.00;;;;;21.95;100.00;98487.09;6339080;20;2727364;-45
2023/07/25 02:26:47;;;;;;;;;6.60;6.60;;;;;21.79;100.00;98526.47;6340136;20;2746370;-48
2023/07/25 02:29:15;;;;;;;;;8.00;5.67;;;;;21.50;100.00;98571.13;6284525;20;2734692;-46
2023/07/25 02:31:44;;;;;;;;;9.40;6.20;;;;;21.45;100.00;98600.88;6339832;20;2752367;-48
2023/07/25 02:34:15;;;;;;;;;8.40;8.40;;;;;21.32;100.00;98623.38;6307255;20;2741942;-44
2023/07/25 02:36:44;;;;;;;;;9.20;7.40;;;;;21.41;100.00;98632.38;6341561;20;2749379;-45
2023/07/25 02:39:12;;;;;;;;;9.33;8.00;;;;;21.40;100.00;98636.09;6283657;20;2748192;-44
2023/07/25 02:41:40;;;;;;;;;9.00;7.33;;;;;21.42;100.00;98644.97;6318593;20;2734695;-44
2023/07/25 02:44:09;;;;;;;;;6.20;5.00;;;;;21.29;100.00;98642.03;6338795;20;2741138;-46
2023/07/25 02:46:37;;;;;;;;;8.67;7.00;;;;;21.31;100.00;98588.94;6313149;20;2741041;-47
2023/07/25 02:49:06;;;;;;;;;7.67;5.67;;;;;21.43;100.00;98453.63;6314016;20;2745086;-44
2023/07/25 02:51:34;;;;;;;;;9.00;6.33;;;;;21.69;100.00;98442.06;6311246;20;2755468;-46
2023/07/25 02:54:03;;;;;;;;;5.40;5.40;;;;;21.42;100.00;98462.00;6339591;20;2736096;-47
2023/07/25 02:56:32;;;;;;;;;4.60;4.60;;;;;21.24;100.00;98444.13;6334852;20;2744039;-45
2023/07/25 02:59:01;;;;;;;;;8.00;6.00;;;;;21.04;100.00;98418.50;6305436;20;2746176;-45
2023/07/25 03:01:29;;;;;;;;;8.00;6.00;;;;;21.36;100.00;98391.75;6293866;20;2742019;-47
2023/07/25 03:03:57;;;;;;;;;6.67;6.67;;;;;20.89;100.00;98390.41;6308821;20;2745494;-46
2023/07/25 03:06:26;;;;;;;;;5.20;5.20;;;;;20.83;100.00;98368.31;6337394;20;2734753;-48
2023/07/25 03:08:55;;;;;;;;;7.80;5.80;;;;;20.72;100.00;98348.88;6305067;20;2735889;-45
2023/07/25 03:11:23;;;;;;;;;6.67;6.67;;;;;20.88;100.00;98354.09;6315445;20;2748161;-44
2023/07/25 03:13:51;;;;;;;;;5.00;4.67;;;;;20.71;100.00;98361.66;6313097;20;2746151;-47
2023/07/25 03:16:20;;;;;;;;;8.33;7.00;;;;;20.68;100.00;98359.31;6309760;20;2757691;-48
2023/07/25 03:18:48;;;;;;;;;6.00;6.00;;;;;20.60;100.00;98362.16;6312602;20;2750301;-47
2023/07/25 03:21:17;;;;;;;;;9.40;6.20;;;;;20.80;100.00;98351.47;6336090;20;2752334;-45
2023/07/25 03:23:45;;;;;;;;;8.00;6.67;;;;;20.77;100.00;98360.91;6285154;20;2748291;-46
2023/07/25 03:26:14;;;;;;;;;8.00;7.20;;;;;20.71;100.00;98380.75;6336759;20;2748204;-49
2023/07/25 03:28:43;;;;;;;;;8.60;6.60;;;;;20.61;100.00;98396.56;6302660;20;2744017;-48
2023/07/25 03:31:12;;;;;;;;;8.80;5.60;;;;;20.75;100.00;98431.19;6306157;20;2748162;-47
2023/07/25 03:33:41;;;;;;;;;9.80;6.60;;;;;20.73;100.00;98444.16;6309134;20;2748256;-46
2023/07/25 03:36:09;;;;;;;;;9.33;6.67;;;;;20.72;100.00;98456.13;6279550;20;2751375;-48
2023/07/25 03:38:38;;;;;;;;;6.25;5.50;;;;;20.93;100.00;98465.38;6337114;20;2611778;-44
2023/07/25 03:41:07;;;;;;;;;7.60;5.80;;;;;20.66;100.00;98478.69;6334473;20;2748268;-44
2023/07/25 03:43:36;;;;;;;;;8.00;6.60;;;;;20.58;100.00;98481.50;6339389;20;2742077;-45
2023/07/25 03:46:05;;;;;;;;;7.80;6.60;;;;;20.74;100.00;98477.75;6338040;20;2741001;-44
2023/07/25 03:48:35;;;;;;;;;7.40;6.20;;;;;20.90;100.00;98499.34;6305928;20;2741076;-48
2023/07/25 03:51:04;;;;;;;;;7.00;5.20;;;;;20.97;100.00;98502.19;6304568;20;2738832;-49
2023/07/25 03:53:33;;;;;;;;;5.20;5.20;;;;;21.05;100.00;98493.88;6337009;20;2734725;-47
2023/07/25 03:56:02;;;;;;;;;5.80;4.20;;;;;20.95;100.00;98513.28;6337562;20;2752351;-47
2023/07/25 03:58:32;;;;;;;;;6.80;4.40;;;;;21.05;100.00;98507.53;6304253;20;2745291;-52
2023/07/25 04:01:01;;;;;;;;;5.40;4.60;;;;;21.12;100.00;98503.00;6303516;20;2751369;-49
2023/07/25 04:03:30;;;;;;;;;7.00;7.00;;;;;21.13;100.00;98499.22;6305235;20;2736781;-49
2023/07/25 04:05:59;;;;;;;;;7.40;5.60;;;;;21.33;100.00;98515.00;6338636;20;2734692;-46
2023/07/25 04:08:28;;;;;;;;;6.60;6.20;;;;;21.09;100.00;98511.59;6336788;20;2739843;-49
2023/07/25 04:10:56;;;;;;;;;9.33;4.67;;;;;21.15;100.00;98502.63;6312174;20;2757609;-48
2023/07/25 04:13:25;;;;;;;;;5.00;5.00;;;;;20.96;100.00;98505.97;6337193;20;2740919;-49
2023/07/25 04:15:54;;;;;;;;;7.60;5.40;;;;;20.90;100.00;98504.81;6334994;20;2736806;-49
2023/07/25 04:18:23;;;;;;;;;6.40;6.40;;;;;20.71;100.00;98503.50;6336112;20;2740892;-47
2023/07/25 04:20:51;;;;;;;;;7.33;5.67;;;;;20.82;100.00;98505.75;6314570;20;2745128;-50
2023/07/25 04:23:25;;;;;;;;;6.00;4.40;;;;;21.23;100.00;98527.06;6336584;20;2743027;-48
2023/07/25 04:25:53;;;;;;;;;7.67;6.33;;;;;21.41;100.00;98529.44;6290661;20;2737766;-47
2023/07/25 04:28:21;;;;;;;;;7.67;5.00;;;;;21.35;100.00;98523.84;6312293;20;2742041;-50
2023/07/25 04:30:49;;;;;;;;;3.67;3.67;;;;;21.29;100.00;98535.53;6312189;20;2756503;-49
2023/07/25 04:33:18;;;;;;;;;7.40;5.80;;;;;21.15;100.00;98499.91;6337156;20;2745147;-46
2023/07/25 04:35:47;;;;;;;;;6.00;4.60;;;;;21.14;100.00;98506.38;6303945;20;2754499;-48
2023/07/25 04:38:17;;;;;;;;;7.80;4.80;;;;;21.00;100.00;98520.91;6303229;20;2748294;-45
2023/07/25 04:40:46;;;;;;;;;5.80;4.00;;;;;21.19;100.00;98473.88;6301640;20;2748232;-52
2023/07/25 04:43:14;;;;;;;;;5.67;3.00;;;;;21.30;100.00;98499.88;6283582;20;2747278;-51
2023/07/25 04:45:43;;;;;;;;;4.20;2.80;;;;;21.27;100.00;98512.03;6333984;20;2753431;-47
2023/07/25 04:48:16;;;;;;;;;7.20;3.40;;;;;21.27;100.00;98489.31;6302544;20;2746157;-47
2023/07/25 04:50:45;;;;;;;;;3.40;3.40;;;;;21.54;100.00;98490.50;6305826;20;2752472;-49
2023/07/25 04:53:14;;;;;;;;;6.00;4.60;;;;;21.45;100.00;98497.09;6311129;20;2749805;-47
2023/07/25 04:55:43;;;;;;;;;6.20;4.80;;;;;21.55;100.00;98494.91;6307538;20;2751328;-46
2023/07/25 04:58:12;;;;;;;;;6.60;5.00;;;;;21.59;100.00;98504.41;6309325;20;2748228;-48
2023/07/25 05:00:41;;;;;;;;;6.20;5.00;;;;;21.45;100.00;98497.09;6337771;20;2744072;-50
2023/07/25 05:03:10;;;;;;;;;5.00;3.60;;;;;21.67;100.00;98504.28;6340801;20;2749409;-48
2023/07/25 05:05:39;;;;;;;;;2.80;2.60;;;;;21.42;100.00;98494.75;6307654;20;2750808;-48
2023/07/25 05:08:08;;;;;;;;;7.80;3.80;;;;;21.43;100.00;98494.59;6308562;20;2754897;-52
2023/07/25 05:10:37;;;;;;;;;5.40;3.80;;;;;21.61;100.00;98501.47;6307877;20;2754448;-47
2023/07/25 05:13:06;;;;;;;;;3.20;3.20;;;;;22.01;100.00;98502.72;6307186;20;2756558;-49
2023/07/25 05:15:37;;;;;;;;;3.20;3.20;;;;;21.93;100.00;98491.91;6308559;20;2756543;-50
2023/07/25 05:18:06;;;;;;;;;4.20;3.80;;;;;22.10;99.60;98496.06;6307614;20;2751856;-48
2023/07/25 05:20:35;;;;;;;;;4.60;4.60;;;;;22.33;98.92;98490.38;6310022;20;2743072;-47
2023/07/25 05:23:06;;;;;;;;;6.80;4.00;;;;;23.96;92.21;98495.28;6309210;20;2750382;-49
2023/07/25 05:25:35;;;;;;;;;5.00;3.00;;;;;23.27;91.94;98474.47;6308142;20;2752378;-47
2023/07/25 05:28:04;;;;;;;;;3.00;3.00;;;;;22.98;94.22;98468.25;6306328;20;2748184;-49
2023/07/25 05:30:33;;;;;;;;;7.00;4.40;;;;;22.86;95.37;98465.22;6307346;20;2748200;-48
2023/07/25 05:33:03;;;;;;;;;6.00;2.00;;;;;22.91;94.74;98435.34;6308527;20;2740938;-50
2023/07/25 05:35:32;;;;;;;;;6.80;1.60;;;;;23.25;93.57;98450.03;6310459;20;2752462;-46
2023/07/25 05:38:01;;;;;;;;;6.67;5.00;;;;;23.49;92.83;98475.16;6283347;20;2747180;-49
2023/07/25 05:40:29;;;;;;;;;5.67;3.33;;;;;23.78;91.81;98465.75;6316933;20;2751325;-46
2023/07/25 05:42:57;;;;;;;;;5.00;3.67;;;;;23.96;91.53;98481.56;6316891;20;2745101;-46
2023/07/25 05:45:26;;;;;;;;;4.00;3.00;;;;;23.99;90.38;98472.94;6334007;20;2746257;-51
2023/07/25 05:47:55;;;;;;;;;4.00;4.00;;;;;24.20;87.22;98475.47;6301202;20;2748197;-46
2023/07/25 05:50:24;;;;;;;;;9.00;4.00;;;;;23.89;88.65;98470.63;6310493;20;2749241;-46
2023/07/25 05:52:53;;;;;;;;;5.00;5.00;;;;;23.39;88.79;98484.63;6310968;20;2734674;-46
2023/07/25 05:55:22;;;;;;;;;4.40;3.20;;;;;23.59;90.37;98484.69;6310431;20;2756603;-48
2023/07/25 05:57:50;;;;;;;;;5.00;4.00;;;;;24.19;88.32;98487.47;6283830;20;2746233;-45
2023/07/25 06:00:19;;;;;;;;;5.60;4.00;;;;;24.23;88.00;98486.00;6339504;20;2741959;-45
2023/07/25 06:02:49;;;;;;;;;7.33;2.67;;;;;24.48;87.72;98482.63;6288182;20;2742016;-47
2023/07/25 06:05:18;;;;;;;;;2.00;2.00;;;;;24.36;86.71;98478.84;6342433;20;2745064;-45
2023/07/25 06:07:47;;;;;;;;;5.00;5.00;;;;;24.49;87.40;98484.34;6342914;20;2745084;-47
2023/07/25 06:10:15;;;;;;;;;10.33;4.00;;;;;24.85;87.69;98488.47;6284073;20;2774305;-49
2023/07/25 06:12:44;;;;;;;;;5.33;4.00;;;;;24.87;87.53;98492.66;6317442;20;2756621;-45
2023/07/25 06:15:13;;;;;;;;;3.80;3.80;;;;;25.20;84.77;98497.25;6340167;20;2748306;-47
2023/07/25 06:17:41;;;;;;;;;16.33;7.00;;;;;25.36;85.06;98498.66;6282001;20;2793151;-45
2023/07/25 06:20:12;;;;;;;;;6.60;4.40;;;;;25.89;81.90;98484.59;6337964;20;2741959;-46
2023/07/25 06:22:40;;;;;;;;;6.67;3.33;;;;;25.67;84.55;98464.81;6283731;20;2752377;-45
2023/07/25 06:25:12;;;;;;;;;3.20;3.20;;;;;26.00;84.05;98472.88;6337029;20;2748197;-47
2023/07/25 06:27:40;;;;;;;;;6.67;4.33;;;;;25.76;82.92;98481.91;6290235;20;2750363;-46
2023/07/25 06:30:10;;;;;;;;;5.60;3.40;;;;;26.09;80.65;98478.09;6339944;20;2754448;-49
2023/07/25 06:32:39;;;;;;;;;4.00;3.20;;;;;25.98;78.52;98476.91;6306725;20;2755489;-47
2023/07/25 06:35:07;;;;;;;;;4.33;2.33;;;;;26.39;77.01;98472.75;6290796;20;2746088;-48
2023/07/25 06:37:37;;;;;;;;;4.20;2.60;;;;;26.29;74.76;98456.75;6338431;20;2749358;-45
2023/07/25 06:40:06;;;;;;;;;4.00;4.00;;;;;26.41;79.11;98465.97;6284999;20;2748303;-49
2023/07/25 06:42:34;;;;;;;;;10.33;5.33;;;;;26.66;77.61;98463.19;6317934;20;2773332;-51
2023/07/25 06:45:04;;;;;;;;;3.00;3.00;;;;;26.92;76.36;98463.97;6337678;20;2756636;-50
2023/07/25 06:47:32;;;;;;;;;4.67;3.67;;;;;26.95;76.40;98452.47;6282998;20;2752376;-47
2023/07/25 06:50:01;;;;;;;;;6.20;3.40;;;;;27.45;72.98;98446.75;6337887;20;2748242;-48
2023/07/25 06:52:29;;;;;;;;;4.67;4.67;;;;;27.72;70.24;98460.97;6296443;20;2736741;-47
2023/07/25 06:54:58;;;;;;;;;4.40;2.40;;;;;28.08;68.31;98450.91;6337953;20;2756566;-49
2023/07/25 06:57:28;;;;;;;;;4.80;4.00;;;;;28.15;69.46;98437.81;6309682;20;2755496;-44
2023/07/25 06:59:57;;;;;;;;;4.33;3.00;;;;;28.43;67.63;98436.25;6283373;20;2752354;-49
2023/07/25 07:02:25;;;;;;;;;5.00;4.00;;;;;28.62;65.07;98428.69;6312917;20;2748243;-43
2023/07/25 07:04:53;;;;;;;;;5.00;2.00;;;;;28.55;61.96;98442.66;6321797;20;2747286;-44
2023/07/25 07:07:21;;;;;;;;;5.33;4.33;;;;;28.67;62.85;98435.19;6314186;20;2745477;-50
2023/07/25 07:09:49;;;;;;;;;3.33;3.33;;;;;29.15;60.51;98432.31;6314938;20;2779593;-50
2023/07/25 07:12:17;;;;;;;;;5.00;5.00;;;;;29.44;58.25;98434.03;6315058;20;2749665;-50
2023/07/25 07:14:45;;;;;;;;;3.00;3.00;;;;;29.49;57.10;98431.38;6311888;20;2754456;-47
2023/07/25 07:17:13;;;;;;;;;4.67;4.67;;;;;29.85;54.27;98422.88;6312656;20;2749377;-45
2023/07/25 07:19:42;;;;;;;;;4.20;3.00;;;;;30.20;55.92;98422.63;6335962;20;2748298;-46
2023/07/25 07:22:10;;;;;;;;;6.67;5.33;;;;;29.82;55.62;98413.16;6281968;20;2750283;-46
2023/07/25 07:24:38;;;;;;;;;5.67;4.33;;;;;29.74;57.35;98402.50;6314785;20;2745167;-43
2023/07/25 07:27:06;;;;;;;;;4.00;4.00;;;;;29.54;55.07;98400.16;6314271;20;2775380;-43
2023/07/25 07:29:34;;;;;;;;;7.00;4.00;;;;;29.46;55.72;98398.66;6315064;20;2750317;-44
2023/07/25 07:32:03;;;;;;;;;3.00;3.00;;;;;29.72;54.58;98396.38;6311310;20;2751349;-45
2023/07/25 07:34:31;;;;;;;;;3.00;3.00;;;;;29.73;55.43;98400.84;6314376;20;2752391;-44
2023/07/25 07:36:58;;;;;;;;;3.67;3.33;;;;;30.66;53.47;98406.72;6313378;20;2754474;-46
2023/07/25 07:39:27;;;;;;;;;3.00;3.00;;;;;30.44;51.58;98408.59;6312595;20;2756637;-47
2023/07/25 07:41:55;;;;;;;;;5.00;5.00;;;;;30.63;50.76;98410.84;6314895;20;2748240;-44
2023/07/25 07:44:23;;;;;;;;;4.33;4.33;;;;;29.84;61.92;98388.84;6321914;20;2750399;-47
2023/07/25 07:46:53;;;;;;;;;7.20;3.60;;;;;29.57;61.80;98385.00;6337473;20;2742146;-45
2023/07/25 07:49:24;;;;;;;;;7.25;3.00;;;;;29.41;62.27;98390.28;6325793;20;3459683;-46
2023/07/25 07:51:52;;;;;;;;;4.00;4.00;;;;;29.50;64.00;98394.31;6313688;20;2742999;-45
2023/07/25 07:54:40;;;;;;;;;7.33;5.33;;;;;28.40;66.94;98403.59;6314245;20;2741991;-44
2023/07/25 07:57:08;;;;;;;;;7.00;5.67;;;;;28.12;68.92;98409.84;6320393;20;2742057;-44
2023/07/25 07:59:36;;;;;;;;;8.00;6.33;;;;;28.11;68.42;98411.78;6313678;20;2746252;-45
2023/07/25 08:02:06;;;;;;;;;8.50;5.83;;;;;27.88;67.77;98406.22;6344043;20;2756545;-45
2023/07/25 08:04:35;;;;;;;;;8.00;5.80;;;;;28.63;66.86;98411.06;6306877;20;2742157;-44
2023/07/25 08:07:03;;;;;;;;;5.00;5.00;;;;;28.96;66.44;98413.13;6284242;20;2748217;-46
2023/07/25 08:09:31;;;;;;;;;6.33;3.00;;;;;28.64;65.11;98416.31;6313904;20;2748247;-46
2023/07/25 08:11:59;;;;;;;;;5.33;3.67;;;;;28.17;67.08;98402.56;6312696;20;2739271;-45
2023/07/25 08:14:27;;;;;;;;;6.00;5.00;;;;;28.26;67.86;98389.22;6315150;20;2745119;-45
2023/07/25 08:16:55;;;;;;;;;7.00;5.00;;;;;27.88;66.92;98375.88;6311425;20;2739916;-49
2023/07/25 08:19:23;;;;;;;;;4.00;4.00;;;;;27.64;68.34;98378.56;6322699;20;2748264;-47
2023/07/25 08:21:53;;;;;;;;;4.33;4.33;;;;;27.73;68.67;98374.41;6315542;20;2756538;-45
2023/07/25 08:24:21;;;;;;;;;6.67;5.00;;;;;27.53;69.18;98373.88;6308609;20;2735717;-44
2023/07/25 08:26:49;;;;;;;;;5.33;4.00;;;;;27.29;69.44;98389.53;6314106;20;2748150;-45
2023/07/25 08:29:17;;;;;;;;;5.33;3.33;;;;;26.97;68.13;98388.88;6320943;20;2748206;-45
2023/07/25 08:31:45;;;;;;;;;6.33;5.00;;;;;26.85;70.25;98389.66;6313534;20;2740024;-44
2023/07/25 08:34:14;;;;;;;;;5.00;4.00;;;;;26.54;69.86;98376.06;6335769;20;2737934;-44
2023/07/25 08:36:42;;;;;;;;;5.33;5.33;;;;;26.77;70.55;98372.59;6288497;20;2741002;-45
2023/07/25 08:39:11;;;;;;;;;5.00;5.00;;;;;26.96;71.05;98373.41;6314685;20;2741028;-46
2023/07/25 08:41:48;;;;;;;;;3.60;3.60;;;;;26.87;70.41;98370.16;6335408;20;2753422;-44
2023/07/25 08:44:19;;;;;;;;;5.67;4.67;;;;;26.47;71.78;98371.44;6278793;20;2742179;-45
2023/07/25 08:46:51;;;;;;;;;6.67;5.00;;;;;26.32;72.09;98367.41;6317211;20;2737903;-44
2023/07/25 08:49:23;;;;;;;;;3.33;3.33;;;;;26.02;73.88;98365.38;6306545;20;2750279;-48
2023/07/25 08:51:54;;;;;;;;;5.00;5.00;;;;;25.94;74.47;98358.25;6332741;20;2727457;-46
2023/07/25 08:54:33;;;;;;;;;8.33;6.00;;;;;25.68;75.49;98350.22;6277911;20;2737886;-45
2023/07/25 08:57:04;;;;;;;;;2.00;1.00;;;;;25.43;76.90;98348.28;6330396;20;2741939;-48
2023/07/25 08:59:32;;;;;;;;;6.00;4.00;;;;;25.33;77.81;98346.06;6304619;20;2749287;-45
2023/07/25 09:02:02;;;;;;;;;6.00;5.00;;;;;25.34;79.75;98366.13;6330722;20;2750414;-48
2023/07/25 09:04:32;;;;;;;;;4.00;4.00;;;;;25.27;82.51;98360.66;6298870;20;2747168;-44
2023/07/25 09:07:01;;;;;;;;;5.00;4.67;;;;;25.02;83.78;98359.75;6275652;20;2748206;-45
2023/07/25 09:09:30;;;;;;;;;4.40;4.40;;;;;24.75;87.15;98363.47;6330981;20;2750294;-45
2023/07/25 09:11:58;;;;;;;;;9.00;5.00;;;;;24.71;88.71;98366.88;6279758;20;2739911;-50
2023/07/25 09:14:27;;;;;;;;;4.80;3.40;;;;;24.69;89.72;98378.06;6330159;20;2747254;-52
2023/07/25 09:16:56;;;;;;;;;5.20;3.60;;;;;24.50;89.83;98382.56;6294038;20;2754615;-47
2023/07/25 09:19:26;;;;;;;;;4.40;4.40;;;;;24.55;91.62;98376.44;6298550;20;2748373;-49
2023/07/25 09:21:58;;;;;;;;;5.00;5.00;;;;;24.27;93.81;98377.53;6302796;20;2746151;-44
2023/07/25 09:24:39;;;;;;;;;6.75;5.75;;;;;24.17;95.52;98374.41;6297521;20;1915965;-44
2023/07/25 09:27:16;;;;;;;;;4.20;3.00;;;;;24.39;96.63;98385.13;6329792;20;2756511;-45
2023/07/25 09:29:46;;;;;;;;;4.67;4.33;;;;;24.22;96.55;98396.53;6273765;20;2746233;-43
2023/07/25 09:32:27;;;;;;;;;4.00;4.00;;;;;24.01;100.00;98402.25;6330247;20;2747265;-46
2023/07/25 09:35:00;;;;;;;;;4.80;4.00;;;;;24.01;99.82;98437.91;6298438;20;2746230;-46
2023/07/25 09:37:29;;;;;;;;;4.40;3.20;;;;;23.94;100.00;98480.97;6302873;20;2756539;-44
2023/07/25 09:39:58;;;;;;;;;5.40;5.40;;;;;23.78;100.00;98543.34;6309173;20;2737774;-50
2023/07/25 09:42:27;;;;;;;;;6.67;6.33;;;;;23.66;100.00;98621.69;6312745;20;2748403;-49
2023/07/25 09:44:56;;;;;;;;;0.80;0.80;;;;;23.32;100.00;98664.53;6331930;20;2746317;-44
2023/07/25 09:47:26;;;;;;;;;4.00;4.00;;;;;22.99;100.00;98670.66;6289344;20;2756578;-47
2023/07/25 09:49:56;;;;;;;;;6.33;6.00;;;;;22.64;100.00;98622.31;6319898;20;2737915;-50
2023/07/25 09:52:25;;;;;;;;;9.67;6.00;;;;;22.60;100.00;98602.72;6308370;20;2758625;-45
2023/07/25 09:54:53;;;;;;;;;5.67;5.00;;;;;22.60;100.00;98588.22;6312474;20;2742993;-44
2023/07/25 09:57:22;;;;;;;;;4.60;4.60;;;;;22.54;100.00;98571.53;6336592;20;2749240;-44
2023/07/25 09:59:51;;;;;;;;;6.67;6.00;;;;;22.69;100.00;98551.44;6280440;20;2746126;-43
2023/07/25 10:02:21;;;;;;;;;6.00;5.60;;;;;22.92;100.00;98543.78;6334615;20;2733643;-45
2023/07/25 10:04:53;;;;;;;;;9.40;6.60;;;;;22.97;100.00;98530.38;6302688;20;2758649;-46
2023/07/25 10:07:25;;;;;;;;;7.50;6.00;;;;;22.92;100.00;98535.56;6304181;20;1915999;-44
2023/07/25 10:09:56;;;;;;;;;7.00;5.00;;;;;22.86;100.00;98530.91;6308572;20;2748193;-43
2023/07/25 10:12:24;;;;;;;;;7.67;5.33;;;;;22.87;100.00;98523.53;6309097;20;2737838;-44
2023/07/25 10:14:53;;;;;;;;;11.00;5.67;;;;;22.77;100.00;98527.47;6310383;20;2757691;-43
2023/07/25 10:17:21;;;;;;;;;6.33;6.00;;;;;22.64;100.00;98526.56;6317062;20;2744164;-44
2023/07/25 10:19:53;;;;;;;;;9.80;8.00;;;;;22.55;100.00;98506.72;6342042;20;2760272;-44
2023/07/25 10:22:44;;;;;;;;;6.67;6.67;;;;;22.66;100.00;98483.44;6282465;20;2731528;-45
2023/07/25 10:25:29;;;;;;;;;10.40;6.60;;;;;22.83;100.00;98451.09;6337913;20;2744066;-44
2023/07/25 10:27:58;;;;;;;;;7.00;5.00;;;;;23.03;100.00;98416.47;6305821;20;2748193;-46
2023/07/25 10:30:30;;;;;;;;;6.00;6.00;;;;;23.26;100.00;98429.81;6292561;20;2728555;-46
2023/07/25 10:33:03;;;;;;;;;10.00;8.33;;;;;23.63;100.00;98502.38;6319565;20;2771149;-44
2023/07/25 10:35:42;;;;;;;;;10.33;9.33;;;;;23.99;100.00;98520.41;6320950;20;2774285;-44
2023/07/25 10:38:15;;;;;;;;;6.00;4.80;;;;;24.21;100.00;98521.03;6335003;20;2737308;-44
2023/07/25 10:41:07;;;;;;;;;9.67;9.67;;;;;24.71;100.00;98509.63;6319981;20;2771125;-44
2023/07/25 10:43:55;;;;;;;;;16.00;8.33;;;;;25.04;100.00;98457.34;6313207;20;3521222;-44
2023/07/25 10:46:30;;;;;;;;;6.00;6.00;;;;;24.82;100.00;98466.94;6313125;20;2737525;-49
2023/07/25 10:49:16;;;;;;;;;10.00;7.00;;;;;24.69;100.00;98456.81;6311794;20;3480531;-46
2023/07/25 10:51:52;;;;;;;;;8.00;8.00;;;;;24.72;100.00;98446.28;6319214;20;2750279;-47
2023/07/25 10:54:27;;;;;;;;;8.67;6.67;;;;;24.82;100.00;98465.03;6309279;20;2760720;-48
2023/07/25 10:57:20;;;;;;;;;11.00;9.67;;;;;24.80;100.00;98477.28;6318099;20;2776345;-44
2023/07/25 11:00:09;;;;;;;;;11.00;9.33;;;;;24.85;100.00;98471.97;6312627;20;3487877;-48
2023/07/25 11:02:43;;;;;;;;;13.67;10.67;;;;;24.80;100.00;98464.38;6312816;20;3506595;-47
2023/07/25 11:05:12;;;;;;;;;9.33;9.33;;;;;24.77;100.00;98475.81;6311289;20;3486736;-47
2023/07/25 11:07:49;;;;;;;;;10.67;9.00;;;;;24.78;100.00;98487.63;6310115;20;3491986;-44
2023/07/25 11:10:28;;;;;;;;;7.33;7.33;;;;;24.44;100.00;98486.84;6320205;20;2754487;-47
2023/07/25 11:13:00;;;;;;;;;10.67;9.00;;;;;24.12;100.00;98472.94;6311319;20;2763966;-44
2023/07/25 11:15:30;;;;;;;;;7.33;7.33;;;;;23.91;100.00;98470.38;6312386;20;2752417;-45
2023/07/25 11:18:14;;;;;;;;;13.00;9.00;;;;;23.87;100.00;98475.44;6316973;20;2775306;-45
2023/07/25 11:20:42;;;;;;;;;10.00;9.00;;;;;23.76;100.00;98490.63;6317392;20;2778511;-44
2023/07/25 11:23:10;;;;;;;;;7.00;7.00;;;;;23.73;99.48;98496.53;6310785;20;2734702;-45